sensor_id;sensor_type;location;lat;lon;timestamp;P1;durP1;ratioP1;P2;durP2;ratioP2
11608;SDS011;5860;52.018;8.536;2024-01-11T00:01:50;51.83;;;25.20;;
11608;SDS011;5860;52.018;8.536;2024-01-11T00:04:17;48.20;;;25.37;;
11608;SDS011;5860;52.018;8.536;2024-01-11T00:06:44;49.17;;;25.37;;
11608;SDS011;5860;52.018;8.536;2024-01-11T00:09:12;50.07;;;24.80;;
11608;SDS011;5860;52.018;8.536;2024-01-11T00:11:38;46.53;;;24.27;;
11608;SDS011;5860;52.018;8.536;2024-01-11T00:14:06;45.43;;;24.17;;
11608;SDS011;5860;52.018;8.536;2024-01-11T00:16:38;40.03;;;23.93;;
11608;SDS011;5860;52.018;8.536;2024-01-11T00:19:05;47.23;;;23.80;;
11608;SDS011;5860;52.018;8.536;2024-01-11T00:21:32;48.93;;;23.77;;
11608;SDS011;5860;52.018;8.536;2024-01-11T00:23:59;44.80;;;23.77;;
11608;SDS011;5860;52.018;8.536;2024-01-11T00:26:26;47.37;;;24.60;;
11608;SDS011;5860;52.018;8.536;2024-01-11T00:28:53;45.57;;;25.43;;
11608;SDS011;5860;52.018;8.536;2024-01-11T00:31:20;50.50;;;26.50;;
11608;SDS011;5860;52.018;8.536;2024-01-11T00:33:47;51.90;;;25.33;;
11608;SDS011;5860;52.018;8.536;2024-01-11T00:36:20;48.67;;;25.47;;
11608;SDS011;5860;52.018;8.536;2024-01-11T00:38:47;52.70;;;26.07;;
11608;SDS011;5860;52.018;8.536;2024-01-11T00:41:15;51.97;;;27.20;;
11608;SDS011;5860;52.018;8.536;2024-01-11T00:43:42;49.40;;;26.10;;
11608;SDS011;5860;52.018;8.536;2024-01-11T00:46:09;49.97;;;26.43;;
11608;SDS011;5860;52.018;8.536;2024-01-11T00:48:36;45.03;;;24.83;;
11608;SDS011;5860;52.018;8.536;2024-01-11T00:51:04;44.93;;;25.17;;
11608;SDS011;5860;52.018;8.536;2024-01-11T00:53:32;51.03;;;24.90;;
11608;SDS011;5860;52.018;8.536;2024-01-11T00:56:00;55.77;;;26.17;;
11608;SDS011;5860;52.018;8.536;2024-01-11T00:58:27;50.07;;;25.10;;
11608;SDS011;5860;52.018;8.536;2024-01-11T01:00:54;50.47;;;26.60;;
11608;SDS011;5860;52.018;8.536;2024-01-11T01:03:21;49.40;;;25.80;;
11608;SDS011;5860;52.018;8.536;2024-01-11T01:05:48;54.23;;;25.43;;
11608;SDS011;5860;52.018;8.536;2024-01-11T01:08:15;55.33;;;26.27;;
11608;SDS011;5860;52.018;8.536;2024-01-11T01:10:42;57.60;;;26.83;;
11608;SDS011;5860;52.018;8.536;2024-01-11T01:13:09;51.40;;;26.30;;
11608;SDS011;5860;52.018;8.536;2024-01-11T01:15:36;58.57;;;27.70;;
11608;SDS011;5860;52.018;8.536;2024-01-11T01:18:03;48.80;;;26.37;;
11608;SDS011;5860;52.018;8.536;2024-01-11T01:20:31;50.70;;;26.07;;
11608;SDS011;5860;52.018;8.536;2024-01-11T01:22:58;43.03;;;24.67;;
11608;SDS011;5860;52.018;8.536;2024-01-11T01:25:25;53.93;;;27.37;;
11608;SDS011;5860;52.018;8.536;2024-01-11T01:27:52;53.97;;;26.60;;
11608;SDS011;5860;52.018;8.536;2024-01-11T01:30:20;52.70;;;26.87;;
11608;SDS011;5860;52.018;8.536;2024-01-11T01:32:47;47.97;;;26.07;;
11608;SDS011;5860;52.018;8.536;2024-01-11T01:35:14;47.73;;;24.87;;
11608;SDS011;5860;52.018;8.536;2024-01-11T01:37:41;48.40;;;25.63;;
11608;SDS011;5860;52.018;8.536;2024-01-11T01:40:09;54.40;;;27.63;;
11608;SDS011;5860;52.018;8.536;2024-01-11T01:42:36;53.33;;;26.43;;
11608;SDS011;5860;52.018;8.536;2024-01-11T01:45:07;49.23;;;25.43;;
11608;SDS011;5860;52.018;8.536;2024-01-11T01:47:34;52.13;;;25.27;;
11608;SDS011;5860;52.018;8.536;2024-01-11T01:50:01;46.50;;;25.97;;
11608;SDS011;5860;52.018;8.536;2024-01-11T01:52:29;50.80;;;24.97;;
11608;SDS011;5860;52.018;8.536;2024-01-11T01:54:56;57.93;;;26.27;;
11608;SDS011;5860;52.018;8.536;2024-01-11T01:57:24;50.40;;;25.30;;
11608;SDS011;5860;52.018;8.536;2024-01-11T01:59:51;53.07;;;26.23;;
11608;SDS011;5860;52.018;8.536;2024-01-11T02:02:19;56.50;;;26.93;;
11608;SDS011;5860;52.018;8.536;2024-01-11T02:04:46;51.33;;;25.37;;
11608;SDS011;5860;52.018;8.536;2024-01-11T02:07:13;47.73;;;25.13;;
11608;SDS011;5860;52.018;8.536;2024-01-11T02:09:41;44.60;;;24.60;;
11608;SDS011;5860;52.018;8.536;2024-01-11T02:12:10;46.77;;;24.67;;
11608;SDS011;5860;52.018;8.536;2024-01-11T02:14:39;50.93;;;25.33;;
11608;SDS011;5860;52.018;8.536;2024-01-11T02:17:06;49.30;;;25.43;;
11608;SDS011;5860;52.018;8.536;2024-01-11T02:19:33;54.73;;;27.20;;
11608;SDS011;5860;52.018;8.536;2024-01-11T02:22:02;44.90;;;25.00;;
11608;SDS011;5860;52.018;8.536;2024-01-11T02:24:37;44.47;;;23.90;;
11608;SDS011;5860;52.018;8.536;2024-01-11T02:27:04;51.13;;;23.70;;
11608;SDS011;5860;52.018;8.536;2024-01-11T02:29:31;48.13;;;24.50;;
11608;SDS011;5860;52.018;8.536;2024-01-11T02:31:58;47.90;;;24.47;;
11608;SDS011;5860;52.018;8.536;2024-01-11T02:34:28;51.90;;;24.83;;
11608;SDS011;5860;52.018;8.536;2024-01-11T02:36:56;44.60;;;23.80;;
11608;SDS011;5860;52.018;8.536;2024-01-11T02:39:23;44.67;;;23.77;;
11608;SDS011;5860;52.018;8.536;2024-01-11T02:41:52;45.40;;;24.20;;
11608;SDS011;5860;52.018;8.536;2024-01-11T02:44:19;54.47;;;24.90;;
11608;SDS011;5860;52.018;8.536;2024-01-11T02:46:46;47.63;;;23.23;;
11608;SDS011;5860;52.018;8.536;2024-01-11T02:49:13;47.17;;;24.23;;
11608;SDS011;5860;52.018;8.536;2024-01-11T02:51:41;48.13;;;23.43;;
11608;SDS011;5860;52.018;8.536;2024-01-11T02:54:08;44.97;;;22.57;;
11608;SDS011;5860;52.018;8.536;2024-01-11T02:56:35;44.40;;;22.67;;
11608;SDS011;5860;52.018;8.536;2024-01-11T02:59:02;46.73;;;24.10;;
11608;SDS011;5860;52.018;8.536;2024-01-11T03:01:29;43.73;;;22.30;;
11608;SDS011;5860;52.018;8.536;2024-01-11T03:03:56;49.13;;;24.20;;
11608;SDS011;5860;52.018;8.536;2024-01-11T03:06:23;44.27;;;22.47;;
11608;SDS011;5860;52.018;8.536;2024-01-11T03:08:50;49.17;;;22.77;;
11608;SDS011;5860;52.018;8.536;2024-01-11T03:11:17;43.07;;;22.93;;
11608;SDS011;5860;52.018;8.536;2024-01-11T03:13:43;46.13;;;23.10;;
11608;SDS011;5860;52.018;8.536;2024-01-11T03:16:10;44.27;;;22.70;;
11608;SDS011;5860;52.018;8.536;2024-01-11T03:18:37;44.93;;;21.83;;
11608;SDS011;5860;52.018;8.536;2024-01-11T03:21:04;44.67;;;22.50;;
11608;SDS011;5860;52.018;8.536;2024-01-11T03:23:31;40.50;;;21.30;;
11608;SDS011;5860;52.018;8.536;2024-01-11T03:25:58;45.23;;;22.20;;
11608;SDS011;5860;52.018;8.536;2024-01-11T03:28:25;46.40;;;22.57;;
11608;SDS011;5860;52.018;8.536;2024-01-11T03:30:52;44.20;;;22.20;;
11608;SDS011;5860;52.018;8.536;2024-01-11T03:33:19;45.60;;;22.13;;
11608;SDS011;5860;52.018;8.536;2024-01-11T03:35:47;43.63;;;21.80;;
11608;SDS011;5860;52.018;8.536;2024-01-11T03:38:13;42.90;;;21.20;;
11608;SDS011;5860;52.018;8.536;2024-01-11T03:40:40;42.37;;;23.27;;
11608;SDS011;5860;52.018;8.536;2024-01-11T03:43:07;40.50;;;21.73;;
11608;SDS011;5860;52.018;8.536;2024-01-11T03:45:34;45.20;;;22.57;;
11608;SDS011;5860;52.018;8.536;2024-01-11T03:48:01;42.50;;;21.40;;
11608;SDS011;5860;52.018;8.536;2024-01-11T03:50:28;41.57;;;21.97;;
11608;SDS011;5860;52.018;8.536;2024-01-11T03:52:55;43.63;;;22.03;;
11608;SDS011;5860;52.018;8.536;2024-01-11T03:55:22;38.23;;;21.13;;
11608;SDS011;5860;52.018;8.536;2024-01-11T03:57:49;40.93;;;21.80;;
11608;SDS011;5860;52.018;8.536;2024-01-11T04:00:16;43.83;;;21.63;;
11608;SDS011;5860;52.018;8.536;2024-01-11T04:02:43;43.83;;;21.97;;
11608;SDS011;5860;52.018;8.536;2024-01-11T04:05:10;44.53;;;22.47;;
11608;SDS011;5860;52.018;8.536;2024-01-11T04:07:37;48.13;;;22.00;;
11608;SDS011;5860;52.018;8.536;2024-01-11T04:10:04;42.47;;;22.50;;
11608;SDS011;5860;52.018;8.536;2024-01-11T04:12:31;44.03;;;21.37;;
11608;SDS011;5860;52.018;8.536;2024-01-11T04:14:58;46.20;;;23.50;;
11608;SDS011;5860;52.018;8.536;2024-01-11T04:17:24;44.23;;;22.70;;
11608;SDS011;5860;52.018;8.536;2024-01-11T04:19:52;46.63;;;23.17;;
11608;SDS011;5860;52.018;8.536;2024-01-11T04:22:18;43.63;;;22.97;;
11608;SDS011;5860;52.018;8.536;2024-01-11T04:24:45;41.37;;;21.10;;
11608;SDS011;5860;52.018;8.536;2024-01-11T04:27:12;43.43;;;22.53;;
11608;SDS011;5860;52.018;8.536;2024-01-11T04:29:39;44.43;;;21.23;;
11608;SDS011;5860;52.018;8.536;2024-01-11T04:32:06;49.63;;;23.43;;
11608;SDS011;5860;52.018;8.536;2024-01-11T04:34:33;45.87;;;22.13;;
11608;SDS011;5860;52.018;8.536;2024-01-11T04:37:00;45.50;;;22.17;;
11608;SDS011;5860;52.018;8.536;2024-01-11T04:39:27;48.93;;;23.33;;
11608;SDS011;5860;52.018;8.536;2024-01-11T04:41:53;46.00;;;23.73;;
11608;SDS011;5860;52.018;8.536;2024-01-11T04:44:20;44.23;;;22.43;;
11608;SDS011;5860;52.018;8.536;2024-01-11T04:46:48;44.53;;;23.43;;
11608;SDS011;5860;52.018;8.536;2024-01-11T04:49:15;44.43;;;22.73;;
11608;SDS011;5860;52.018;8.536;2024-01-11T04:51:42;44.73;;;23.43;;
11608;SDS011;5860;52.018;8.536;2024-01-11T04:54:09;45.40;;;23.87;;
11608;SDS011;5860;52.018;8.536;2024-01-11T04:56:36;48.83;;;23.33;;
11608;SDS011;5860;52.018;8.536;2024-01-11T04:59:03;42.63;;;23.00;;
11608;SDS011;5860;52.018;8.536;2024-01-11T05:01:30;42.47;;;22.60;;
11608;SDS011;5860;52.018;8.536;2024-01-11T05:03:57;46.70;;;23.37;;
11608;SDS011;5860;52.018;8.536;2024-01-11T05:06:24;44.67;;;23.13;;
11608;SDS011;5860;52.018;8.536;2024-01-11T05:08:51;45.47;;;22.20;;
11608;SDS011;5860;52.018;8.536;2024-01-11T05:11:19;40.40;;;22.00;;
11608;SDS011;5860;52.018;8.536;2024-01-11T05:13:53;44.50;;;22.40;;
11608;SDS011;5860;52.018;8.536;2024-01-11T05:16:25;46.97;;;22.53;;
11608;SDS011;5860;52.018;8.536;2024-01-11T05:18:54;42.67;;;23.03;;
11608;SDS011;5860;52.018;8.536;2024-01-11T05:21:22;42.47;;;22.23;;
11608;SDS011;5860;52.018;8.536;2024-01-11T05:23:50;45.57;;;23.83;;
11608;SDS011;5860;52.018;8.536;2024-01-11T05:26:19;46.90;;;23.47;;
11608;SDS011;5860;52.018;8.536;2024-01-11T05:28:46;48.27;;;23.20;;
11608;SDS011;5860;52.018;8.536;2024-01-11T05:31:14;42.20;;;22.20;;
11608;SDS011;5860;52.018;8.536;2024-01-11T05:33:43;48.30;;;24.47;;
11608;SDS011;5860;52.018;8.536;2024-01-11T05:36:10;43.50;;;23.90;;
11608;SDS011;5860;52.018;8.536;2024-01-11T05:38:38;49.30;;;22.83;;
11608;SDS011;5860;52.018;8.536;2024-01-11T05:41:06;49.17;;;24.63;;
11608;SDS011;5860;52.018;8.536;2024-01-11T05:43:34;49.63;;;23.73;;
11608;SDS011;5860;52.018;8.536;2024-01-11T05:46:01;50.33;;;24.17;;
11608;SDS011;5860;52.018;8.536;2024-01-11T05:48:28;49.57;;;23.97;;
11608;SDS011;5860;52.018;8.536;2024-01-11T05:50:55;48.30;;;24.97;;
11608;SDS011;5860;52.018;8.536;2024-01-11T05:53:22;49.67;;;23.73;;
11608;SDS011;5860;52.018;8.536;2024-01-11T05:55:51;44.13;;;23.77;;
11608;SDS011;5860;52.018;8.536;2024-01-11T05:58:20;48.00;;;23.63;;
11608;SDS011;5860;52.018;8.536;2024-01-11T06:00:52;47.17;;;24.90;;
11608;SDS011;5860;52.018;8.536;2024-01-11T06:04:23;48.27;;;24.03;;
11608;SDS011;5860;52.018;8.536;2024-01-11T06:06:50;49.20;;;24.03;;
11608;SDS011;5860;52.018;8.536;2024-01-11T06:09:17;43.37;;;22.97;;
11608;SDS011;5860;52.018;8.536;2024-01-11T06:11:44;47.27;;;22.93;;
11608;SDS011;5860;52.018;8.536;2024-01-11T06:14:11;40.33;;;22.13;;
11608;SDS011;5860;52.018;8.536;2024-01-11T06:16:38;45.77;;;22.03;;
11608;SDS011;5860;52.018;8.536;2024-01-11T06:19:06;43.33;;;21.03;;
11608;SDS011;5860;52.018;8.536;2024-01-11T06:21:34;48.77;;;21.87;;
11608;SDS011;5860;52.018;8.536;2024-01-11T06:24:00;43.13;;;21.53;;
11608;SDS011;5860;52.018;8.536;2024-01-11T06:26:29;41.77;;;20.37;;
11608;SDS011;5860;52.018;8.536;2024-01-11T06:28:56;43.63;;;20.60;;
11608;SDS011;5860;52.018;8.536;2024-01-11T06:31:24;47.60;;;22.00;;
11608;SDS011;5860;52.018;8.536;2024-01-11T06:33:51;38.97;;;20.03;;
11608;SDS011;5860;52.018;8.536;2024-01-11T06:36:18;41.57;;;21.67;;
11608;SDS011;5860;52.018;8.536;2024-01-11T06:38:44;42.10;;;22.43;;
11608;SDS011;5860;52.018;8.536;2024-01-11T06:41:11;41.30;;;21.97;;
11608;SDS011;5860;52.018;8.536;2024-01-11T06:43:41;42.67;;;20.80;;
11608;SDS011;5860;52.018;8.536;2024-01-11T06:46:08;38.63;;;21.47;;
11608;SDS011;5860;52.018;8.536;2024-01-11T06:48:36;40.20;;;21.87;;
11608;SDS011;5860;52.018;8.536;2024-01-11T06:51:04;44.40;;;21.03;;
11608;SDS011;5860;52.018;8.536;2024-01-11T06:53:36;44.80;;;21.77;;
11608;SDS011;5860;52.018;8.536;2024-01-11T06:56:04;39.40;;;21.00;;
11608;SDS011;5860;52.018;8.536;2024-01-11T06:58:42;39.57;;;21.47;;
11608;SDS011;5860;52.018;8.536;2024-01-11T07:01:10;41.53;;;20.87;;
11608;SDS011;5860;52.018;8.536;2024-01-11T07:03:37;47.73;;;23.37;;
11608;SDS011;5860;52.018;8.536;2024-01-11T07:06:05;43.60;;;21.67;;
11608;SDS011;5860;52.018;8.536;2024-01-11T07:08:33;47.50;;;22.57;;
11608;SDS011;5860;52.018;8.536;2024-01-11T07:11:01;46.03;;;22.17;;
11608;SDS011;5860;52.018;8.536;2024-01-11T07:13:29;46.37;;;24.17;;
11608;SDS011;5860;52.018;8.536;2024-01-11T07:15:57;44.83;;;23.20;;
11608;SDS011;5860;52.018;8.536;2024-01-11T07:18:24;44.07;;;22.90;;
11608;SDS011;5860;52.018;8.536;2024-01-11T07:20:52;42.03;;;22.87;;
11608;SDS011;5860;52.018;8.536;2024-01-11T07:23:22;42.50;;;22.07;;
11608;SDS011;5860;52.018;8.536;2024-01-11T07:25:49;46.33;;;23.77;;
11608;SDS011;5860;52.018;8.536;2024-01-11T07:28:16;41.33;;;22.63;;
11608;SDS011;5860;52.018;8.536;2024-01-11T07:30:43;46.63;;;22.80;;
11608;SDS011;5860;52.018;8.536;2024-01-11T07:33:10;42.57;;;22.87;;
11608;SDS011;5860;52.018;8.536;2024-01-11T07:35:38;44.13;;;22.30;;
11608;SDS011;5860;52.018;8.536;2024-01-11T07:38:05;44.10;;;23.43;;
11608;SDS011;5860;52.018;8.536;2024-01-11T07:40:31;41.73;;;21.67;;
11608;SDS011;5860;52.018;8.536;2024-01-11T07:43:01;40.70;;;22.50;;
11608;SDS011;5860;52.018;8.536;2024-01-11T07:45:30;41.23;;;22.23;;
11608;SDS011;5860;52.018;8.536;2024-01-11T07:47:57;43.77;;;23.00;;
11608;SDS011;5860;52.018;8.536;2024-01-11T07:50:24;48.17;;;23.17;;
11608;SDS011;5860;52.018;8.536;2024-01-11T07:52:51;42.23;;;22.10;;
11608;SDS011;5860;52.018;8.536;2024-01-11T07:55:17;40.43;;;21.67;;
11608;SDS011;5860;52.018;8.536;2024-01-11T07:57:50;40.47;;;21.77;;
11608;SDS011;5860;52.018;8.536;2024-01-11T08:00:16;43.40;;;22.00;;
11608;SDS011;5860;52.018;8.536;2024-01-11T08:02:43;43.60;;;21.60;;
11608;SDS011;5860;52.018;8.536;2024-01-11T08:05:11;36.77;;;20.27;;
11608;SDS011;5860;52.018;8.536;2024-01-11T08:07:38;40.03;;;20.60;;
11608;SDS011;5860;52.018;8.536;2024-01-11T08:10:05;38.33;;;19.83;;
11608;SDS011;5860;52.018;8.536;2024-01-11T08:12:33;34.27;;;19.37;;
11608;SDS011;5860;52.018;8.536;2024-01-11T08:14:59;38.27;;;19.27;;
11608;SDS011;5860;52.018;8.536;2024-01-11T08:17:26;36.33;;;19.27;;
11608;SDS011;5860;52.018;8.536;2024-01-11T08:19:53;39.00;;;20.33;;
11608;SDS011;5860;52.018;8.536;2024-01-11T08:22:23;40.00;;;20.73;;
11608;SDS011;5860;52.018;8.536;2024-01-11T08:24:53;40.60;;;20.57;;
11608;SDS011;5860;52.018;8.536;2024-01-11T08:27:20;42.40;;;19.97;;
11608;SDS011;5860;52.018;8.536;2024-01-11T08:29:46;42.67;;;20.43;;
11608;SDS011;5860;52.018;8.536;2024-01-11T08:32:13;36.23;;;19.17;;
11608;SDS011;5860;52.018;8.536;2024-01-11T08:34:59;39.60;;;19.80;;
11608;SDS011;5860;52.018;8.536;2024-01-11T08:37:28;37.07;;;20.13;;
11608;SDS011;5860;52.018;8.536;2024-01-11T08:39:54;36.00;;;20.57;;
11608;SDS011;5860;52.018;8.536;2024-01-11T08:42:21;38.63;;;20.33;;
11608;SDS011;5860;52.018;8.536;2024-01-11T08:44:48;36.13;;;19.33;;
11608;SDS011;5860;52.018;8.536;2024-01-11T08:47:15;35.30;;;20.07;;
11608;SDS011;5860;52.018;8.536;2024-01-11T08:49:42;38.93;;;20.93;;
11608;SDS011;5860;52.018;8.536;2024-01-11T08:52:09;39.27;;;20.77;;
11608;SDS011;5860;52.018;8.536;2024-01-11T08:54:36;36.53;;;19.93;;
11608;SDS011;5860;52.018;8.536;2024-01-11T08:57:03;33.63;;;19.10;;
11608;SDS011;5860;52.018;8.536;2024-01-11T08:59:31;38.47;;;19.73;;
11608;SDS011;5860;52.018;8.536;2024-01-11T09:01:58;35.73;;;19.30;;
11608;SDS011;5860;52.018;8.536;2024-01-11T09:04:40;38.20;;;19.20;;
11608;SDS011;5860;52.018;8.536;2024-01-11T09:07:07;35.77;;;18.80;;
11608;SDS011;5860;52.018;8.536;2024-01-11T09:09:34;35.50;;;18.43;;
11608;SDS011;5860;52.018;8.536;2024-01-11T09:12:13;36.97;;;19.03;;
11608;SDS011;5860;52.018;8.536;2024-01-11T09:14:40;37.63;;;19.50;;
11608;SDS011;5860;52.018;8.536;2024-01-11T09:17:07;37.07;;;19.93;;
11608;SDS011;5860;52.018;8.536;2024-01-11T09:19:34;36.03;;;20.47;;
11608;SDS011;5860;52.018;8.536;2024-01-11T09:22:04;40.10;;;20.90;;
11608;SDS011;5860;52.018;8.536;2024-01-11T09:24:31;35.77;;;19.30;;
11608;SDS011;5860;52.018;8.536;2024-01-11T09:27:03;36.90;;;20.57;;
11608;SDS011;5860;52.018;8.536;2024-01-11T09:29:31;35.67;;;19.73;;
11608;SDS011;5860;52.018;8.536;2024-01-11T09:31:58;37.80;;;20.43;;
11608;SDS011;5860;52.018;8.536;2024-01-11T09:34:26;39.63;;;20.73;;
11608;SDS011;5860;52.018;8.536;2024-01-11T09:36:54;36.70;;;19.63;;
11608;SDS011;5860;52.018;8.536;2024-01-11T09:39:25;35.70;;;19.90;;
11608;SDS011;5860;52.018;8.536;2024-01-11T09:41:52;38.43;;;21.70;;
11608;SDS011;5860;52.018;8.536;2024-01-11T09:44:49;36.13;;;20.27;;
11608;SDS011;5860;52.018;8.536;2024-01-11T09:47:17;40.60;;;19.97;;
11608;SDS011;5860;52.018;8.536;2024-01-11T09:49:45;40.40;;;21.20;;
11608;SDS011;5860;52.018;8.536;2024-01-11T09:52:18;39.70;;;21.57;;
11608;SDS011;5860;52.018;8.536;2024-01-11T09:54:46;35.67;;;19.90;;
11608;SDS011;5860;52.018;8.536;2024-01-11T09:57:13;38.00;;;21.23;;
11608;SDS011;5860;52.018;8.536;2024-01-11T09:59:43;35.67;;;19.83;;
11608;SDS011;5860;52.018;8.536;2024-01-11T10:02:10;38.17;;;20.67;;
11608;SDS011;5860;52.018;8.536;2024-01-11T10:04:38;37.20;;;20.57;;
11608;SDS011;5860;52.018;8.536;2024-01-11T10:07:08;41.27;;;21.10;;
11608;SDS011;5860;52.018;8.536;2024-01-11T10:09:36;39.20;;;19.70;;
11608;SDS011;5860;52.018;8.536;2024-01-11T10:12:03;39.33;;;20.33;;
11608;SDS011;5860;52.018;8.536;2024-01-11T10:14:31;35.27;;;20.13;;
11608;SDS011;5860;52.018;8.536;2024-01-11T10:16:58;36.63;;;20.17;;
11608;SDS011;5860;52.018;8.536;2024-01-11T10:19:25;38.20;;;21.33;;
11608;SDS011;5860;52.018;8.536;2024-01-11T10:21:53;36.23;;;20.57;;
11608;SDS011;5860;52.018;8.536;2024-01-11T10:24:20;32.67;;;19.13;;
11608;SDS011;5860;52.018;8.536;2024-01-11T10:26:48;37.67;;;20.57;;
11608;SDS011;5860;52.018;8.536;2024-01-11T10:29:15;32.83;;;18.70;;
11608;SDS011;5860;52.018;8.536;2024-01-11T10:31:44;34.70;;;19.70;;
11608;SDS011;5860;52.018;8.536;2024-01-11T10:34:11;33.00;;;18.73;;
11608;SDS011;5860;52.018;8.536;2024-01-11T10:36:39;35.77;;;19.07;;
11608;SDS011;5860;52.018;8.536;2024-01-11T10:39:08;29.97;;;18.27;;
11608;SDS011;5860;52.018;8.536;2024-01-11T10:41:38;29.53;;;17.60;;
11608;SDS011;5860;52.018;8.536;2024-01-11T10:44:12;28.30;;;18.17;;
11608;SDS011;5860;52.018;8.536;2024-01-11T10:46:52;33.57;;;17.93;;
11608;SDS011;5860;52.018;8.536;2024-01-11T10:49:23;31.67;;;17.87;;
11608;SDS011;5860;52.018;8.536;2024-01-11T10:51:58;27.10;;;16.23;;
11608;SDS011;5860;52.018;8.536;2024-01-11T10:54:27;30.37;;;17.57;;
11608;SDS011;5860;52.018;8.536;2024-01-11T10:56:55;30.27;;;17.80;;
11608;SDS011;5860;52.018;8.536;2024-01-11T10:59:25;28.67;;;17.23;;
11608;SDS011;5860;52.018;8.536;2024-01-11T11:01:53;31.43;;;15.37;;
11608;SDS011;5860;52.018;8.536;2024-01-11T11:04:22;30.20;;;15.83;;
11608;SDS011;5860;52.018;8.536;2024-01-11T11:06:51;29.13;;;15.93;;
11608;SDS011;5860;52.018;8.536;2024-01-11T11:09:21;26.70;;;15.00;;
11608;SDS011;5860;52.018;8.536;2024-01-11T11:11:49;27.70;;;15.63;;
11608;SDS011;5860;52.018;8.536;2024-01-11T11:14:16;25.17;;;14.27;;
11608;SDS011;5860;52.018;8.536;2024-01-11T11:16:44;25.00;;;13.93;;
11608;SDS011;5860;52.018;8.536;2024-01-11T11:19:11;26.90;;;14.50;;
11608;SDS011;5860;52.018;8.536;2024-01-11T11:21:44;24.17;;;14.27;;
11608;SDS011;5860;52.018;8.536;2024-01-11T11:24:12;26.80;;;14.43;;
11608;SDS011;5860;52.018;8.536;2024-01-11T11:26:39;27.67;;;14.63;;
11608;SDS011;5860;52.018;8.536;2024-01-11T11:29:07;26.03;;;13.53;;
11608;SDS011;5860;52.018;8.536;2024-01-11T11:34:05;27.07;;;13.87;;
11608;SDS011;5860;52.018;8.536;2024-01-11T11:36:33;24.70;;;14.87;;
11608;SDS011;5860;52.018;8.536;2024-01-11T11:39:01;26.87;;;14.97;;
11608;SDS011;5860;52.018;8.536;2024-01-11T11:41:32;27.77;;;15.57;;
11608;SDS011;5860;52.018;8.536;2024-01-11T11:44:02;29.10;;;15.67;;
11608;SDS011;5860;52.018;8.536;2024-01-11T11:46:31;25.33;;;15.33;;
11608;SDS011;5860;52.018;8.536;2024-01-11T11:48:59;27.33;;;15.50;;
11608;SDS011;5860;52.018;8.536;2024-01-11T11:51:27;30.80;;;16.50;;
11608;SDS011;5860;52.018;8.536;2024-01-11T11:53:55;25.67;;;14.87;;
11608;SDS011;5860;52.018;8.536;2024-01-11T11:56:22;25.73;;;14.63;;
11608;SDS011;5860;52.018;8.536;2024-01-11T11:58:50;28.13;;;16.03;;
11608;SDS011;5860;52.018;8.536;2024-01-11T12:01:20;29.53;;;15.53;;
11608;SDS011;5860;52.018;8.536;2024-01-11T12:03:47;27.40;;;15.60;;
11608;SDS011;5860;52.018;8.536;2024-01-11T12:06:19;30.13;;;16.00;;
11608;SDS011;5860;52.018;8.536;2024-01-11T12:08:47;33.27;;;16.93;;
11608;SDS011;5860;52.018;8.536;2024-01-11T12:11:17;34.40;;;16.83;;
11608;SDS011;5860;52.018;8.536;2024-01-11T12:13:46;27.37;;;16.30;;
11608;SDS011;5860;52.018;8.536;2024-01-11T12:16:14;29.23;;;15.93;;
11608;SDS011;5860;52.018;8.536;2024-01-11T12:18:41;34.87;;;16.97;;
11608;SDS011;5860;52.018;8.536;2024-01-11T12:21:08;32.23;;;16.93;;
11608;SDS011;5860;52.018;8.536;2024-01-11T12:23:36;29.57;;;16.43;;
11608;SDS011;5860;52.018;8.536;2024-01-11T12:26:06;35.00;;;16.93;;
11608;SDS011;5860;52.018;8.536;2024-01-11T12:28:41;32.77;;;18.43;;
11608;SDS011;5860;52.018;8.536;2024-01-11T12:31:10;31.77;;;17.87;;
11608;SDS011;5860;52.018;8.536;2024-01-11T12:33:39;32.73;;;18.37;;
11608;SDS011;5860;52.018;8.536;2024-01-11T12:36:08;30.83;;;17.53;;
11608;SDS011;5860;52.018;8.536;2024-01-11T12:38:35;31.47;;;17.67;;
11608;SDS011;5860;52.018;8.536;2024-01-11T12:41:03;31.57;;;18.07;;
11608;SDS011;5860;52.018;8.536;2024-01-11T12:43:31;31.47;;;16.50;;
11608;SDS011;5860;52.018;8.536;2024-01-11T12:46:00;32.13;;;16.40;;
11608;SDS011;5860;52.018;8.536;2024-01-11T12:48:28;33.33;;;16.80;;
11608;SDS011;5860;52.018;8.536;2024-01-11T12:50:56;29.93;;;15.97;;
11608;SDS011;5860;52.018;8.536;2024-01-11T12:53:39;32.40;;;14.93;;
11608;SDS011;5860;52.018;8.536;2024-01-11T12:56:07;30.93;;;15.80;;
11608;SDS011;5860;52.018;8.536;2024-01-11T12:58:37;27.87;;;14.67;;
11608;SDS011;5860;52.018;8.536;2024-01-11T13:01:05;29.10;;;13.87;;
11608;SDS011;5860;52.018;8.536;2024-01-11T13:03:38;28.10;;;13.23;;
11608;SDS011;5860;52.018;8.536;2024-01-11T13:06:06;24.70;;;12.93;;
11608;SDS011;5860;52.018;8.536;2024-01-11T13:08:35;25.50;;;12.63;;
11608;SDS011;5860;52.018;8.536;2024-01-11T13:11:04;21.13;;;11.70;;
11608;SDS011;5860;52.018;8.536;2024-01-11T13:13:34;24.87;;;11.90;;
11608;SDS011;5860;52.018;8.536;2024-01-11T13:16:02;23.07;;;12.57;;
11608;SDS011;5860;52.018;8.536;2024-01-11T13:18:35;22.97;;;12.10;;
11608;SDS011;5860;52.018;8.536;2024-01-11T13:21:02;26.67;;;13.27;;
11608;SDS011;5860;52.018;8.536;2024-01-11T13:23:29;22.30;;;11.90;;
11608;SDS011;5860;52.018;8.536;2024-01-11T13:25:57;21.97;;;12.13;;
11608;SDS011;5860;52.018;8.536;2024-01-11T13:28:25;23.27;;;12.30;;
11608;SDS011;5860;52.018;8.536;2024-01-11T13:30:53;23.10;;;12.43;;
11608;SDS011;5860;52.018;8.536;2024-01-11T13:33:20;24.37;;;11.93;;
11608;SDS011;5860;52.018;8.536;2024-01-11T13:35:50;20.17;;;11.07;;
11608;SDS011;5860;52.018;8.536;2024-01-11T13:38:18;20.17;;;10.47;;
11608;SDS011;5860;52.018;8.536;2024-01-11T13:40:49;13.67;;;7.83;;
11608;SDS011;5860;52.018;8.536;2024-01-11T13:43:16;12.50;;;7.57;;
11608;SDS011;5860;52.018;8.536;2024-01-11T13:45:44;14.30;;;8.07;;
11608;SDS011;5860;52.018;8.536;2024-01-11T13:48:11;11.37;;;7.17;;
11608;SDS011;5860;52.018;8.536;2024-01-11T13:50:38;11.93;;;7.10;;
11608;SDS011;5860;52.018;8.536;2024-01-11T13:53:05;14.50;;;6.77;;
11608;SDS011;5860;52.018;8.536;2024-01-11T13:55:33;12.07;;;7.47;;
11608;SDS011;5860;52.018;8.536;2024-01-11T13:58:06;12.33;;;7.67;;
11608;SDS011;5860;52.018;8.536;2024-01-11T14:00:34;11.17;;;7.03;;
11608;SDS011;5860;52.018;8.536;2024-01-11T14:03:02;10.13;;;6.80;;
11608;SDS011;5860;52.018;8.536;2024-01-11T14:05:32;12.30;;;6.80;;
11608;SDS011;5860;52.018;8.536;2024-01-11T14:08:03;11.90;;;7.10;;
11608;SDS011;5860;52.018;8.536;2024-01-11T14:10:34;11.53;;;7.47;;
11608;SDS011;5860;52.018;8.536;2024-01-11T14:13:01;15.53;;;7.13;;
11608;SDS011;5860;52.018;8.536;2024-01-11T14:15:29;14.27;;;7.83;;
11608;SDS011;5860;52.018;8.536;2024-01-11T14:17:57;10.90;;;7.43;;
11608;SDS011;5860;52.018;8.536;2024-01-11T14:20:24;10.87;;;6.93;;
11608;SDS011;5860;52.018;8.536;2024-01-11T14:23:12;13.33;;;7.70;;
11608;SDS011;5860;52.018;8.536;2024-01-11T14:25:39;10.83;;;6.90;;
11608;SDS011;5860;52.018;8.536;2024-01-11T14:28:07;14.97;;;7.33;;
11608;SDS011;5860;52.018;8.536;2024-01-11T14:30:34;12.33;;;6.47;;
11608;SDS011;5860;52.018;8.536;2024-01-11T14:33:01;11.57;;;6.60;;
11608;SDS011;5860;52.018;8.536;2024-01-11T14:35:29;11.07;;;6.50;;
11608;SDS011;5860;52.018;8.536;2024-01-11T14:37:57;10.03;;;6.50;;
11608;SDS011;5860;52.018;8.536;2024-01-11T14:40:24;12.77;;;7.20;;
11608;SDS011;5860;52.018;8.536;2024-01-11T14:42:53;14.60;;;8.00;;
11608;SDS011;5860;52.018;8.536;2024-01-11T14:45:20;16.50;;;9.00;;